sensor_id;sensor_type;location;lat;lon;timestamp;pressure;altitude;pressure_sealevel;temperature;humidity
66547;BME280;53400;50.364;14.874;2023-10-13T00:01:22;98619.66;;;14.71;100.00
66547;BME280;53400;50.364;14.874;2023-10-13T00:03:48;98622.06;;;14.83;100.00
66547;BME280;53400;50.364;14.874;2023-10-13T00:06:14;98632.31;;;14.86;100.00
66547;BME280;53400;50.364;14.874;2023-10-13T00:08:41;98620.75;;;14.65;100.00
66547;BME280;53400;50.364;14.874;2023-10-13T00:11:11;98624.50;;;14.74;100.00
66547;BME280;53400;50.364;14.874;2023-10-13T00:13:37;98629.63;;;14.81;100.00
66547;BME280;53400;50.364;14.874;2023-10-13T00:16:09;98614.53;;;14.80;100.00
66547;BME280;53400;50.364;14.874;2023-10-13T00:18:36;98624.00;;;14.62;100.00
66547;BME280;53400;50.364;14.874;2023-10-13T00:21:10;98621.00;;;14.68;100.00
66547;BME280;53400;50.364;14.874;2023-10-13T00:23:41;98631.25;;;14.77;100.00
66547;BME280;53400;50.364;14.874;2023-10-13T00:26:20;98626.41;;;14.63;100.00
66547;BME280;53400;50.364;14.874;2023-10-13T00:28:50;98628.56;;;14.56;100.00
66547;BME280;53400;50.364;14.874;2023-10-13T00:31:27;98624.53;;;14.59;100.00
66547;BME280;53400;50.364;14.874;2023-10-13T00:33:59;98630.19;;;14.62;100.00
66547;BME280;53400;50.364;14.874;2023-10-13T00:36:51;98622.09;;;14.67;100.00
66547;BME280;53400;50.364;14.874;2023-10-13T00:39:37;98615.09;;;14.56;100.00
66547;BME280;53400;50.364;14.874;2023-10-13T00:42:06;98611.59;;;14.56;100.00
66547;BME280;53400;50.364;14.874;2023-10-13T00:44:33;98616.47;;;14.64;100.00
66547;BME280;53400;50.364;14.874;2023-10-13T00:47:11;98609.41;;;14.78;100.00
66547;BME280;53400;50.364;14.874;2023-10-13T00:49:49;98611.00;;;14.84;100.00
66547;BME280;53400;50.364;14.874;2023-10-13T00:52:18;98611.03;;;14.74;100.00
66547;BME280;53400;50.364;14.874;2023-10-13T00:54:45;98616.41;;;14.84;100.00
66547;BME280;53400;50.364;14.874;2023-10-13T00:57:17;98620.16;;;14.94;100.00
66547;BME280;53400;50.364;14.874;2023-10-13T00:59:52;98622.38;;;14.76;100.00
66547;BME280;53400;50.364;14.874;2023-10-13T01:02:24;98616.97;;;14.66;100.00
66547;BME280;53400;50.364;14.874;2023-10-13T01:05:02;98618.88;;;14.65;100.00
66547;BME280;53400;50.364;14.874;2023-10-13T01:07:29;98615.91;;;14.67;100.00
66547;BME280;53400;50.364;14.874;2023-10-13T01:09:57;98615.59;;;14.84;100.00
66547;BME280;53400;50.364;14.874;2023-10-13T01:12:22;98621.28;;;14.82;100.00
66547;BME280;53400;50.364;14.874;2023-10-13T01:14:52;98618.03;;;14.75;100.00
66547;BME280;53400;50.364;14.874;2023-10-13T01:17:17;98625.84;;;14.82;100.00
66547;BME280;53400;50.364;14.874;2023-10-13T01:19:46;98626.94;;;14.86;100.00
66547;BME280;53400;50.364;14.874;2023-10-13T01:22:14;98637.97;;;14.84;100.00
66547;BME280;53400;50.364;14.874;2023-10-13T01:24:42;98638.81;;;14.80;100.00
66547;BME280;53400;50.364;14.874;2023-10-13T01:27:09;98638.78;;;14.85;100.00
66547;BME280;53400;50.364;14.874;2023-10-13T01:29:47;98643.63;;;14.88;100.00
66547;BME280;53400;50.364;14.874;2023-10-13T01:32:24;98637.13;;;14.99;100.00
66547;BME280;53400;50.364;14.874;2023-10-13T01:34:51;98651.97;;;14.97;100.00
66547;BME280;53400;50.364;14.874;2023-10-13T01:37:21;98645.22;;;15.04;100.00
66547;BME280;53400;50.364;14.874;2023-10-13T01:39:52;98654.97;;;14.80;100.00
66547;BME280;53400;50.364;14.874;2023-10-13T01:42:18;98648.50;;;14.86;100.00
66547;BME280;53400;50.364;14.874;2023-10-13T01:44:47;98652.03;;;14.76;100.00
66547;BME280;53400;50.364;14.874;2023-10-13T01:47:14;98657.13;;;14.78;100.00
66547;BME280;53400;50.364;14.874;2023-10-13T01:49:42;98656.84;;;14.69;100.00
66547;BME280;53400;50.364;14.874;2023-10-13T01:52:12;98655.81;;;14.70;100.00
66547;BME280;53400;50.364;14.874;2023-10-13T01:54:42;98652.28;;;14.64;100.00
66547;BME280;53400;50.364;14.874;2023-10-13T01:57:11;98658.75;;;14.68;100.00
66547;BME280;53400;50.364;14.874;2023-10-13T01:59:43;98654.44;;;14.73;100.00
66547;BME280;53400;50.364;14.874;2023-10-13T02:02:09;98663.31;;;14.83;100.00
66547;BME280;53400;50.364;14.874;2023-10-13T02:04:38;98658.47;;;14.80;100.00
66547;BME280;53400;50.364;14.874;2023-10-13T02:07:17;98647.72;;;14.70;100.00
66547;BME280;53400;50.364;14.874;2023-10-13T02:09:44;98657.38;;;14.86;100.00
66547;BME280;53400;50.364;14.874;2023-10-13T02:12:12;98659.31;;;14.71;100.00
66547;BME280;53400;50.364;14.874;2023-10-13T02:14:38;98659.56;;;14.79;100.00
66547;BME280;53400;50.364;14.874;2023-10-13T02:17:04;98659.53;;;14.95;100.00
66547;BME280;53400;50.364;14.874;2023-10-13T02:19:40;98653.59;;;14.98;100.00
66547;BME280;53400;50.364;14.874;2023-10-13T02:22:10;98652.22;;;15.00;100.00
66547;BME280;53400;50.364;14.874;2023-10-13T02:24:37;98659.53;;;14.95;100.00
66547;BME280;53400;50.364;14.874;2023-10-13T02:27:06;98663.88;;;14.85;100.00
66547;BME280;53400;50.364;14.874;2023-10-13T02:29:40;98658.19;;;14.82;100.00
66547;BME280;53400;50.364;14.874;2023-10-13T02:32:06;98657.69;;;14.80;100.00
66547;BME280;53400;50.364;14.874;2023-10-13T02:34:44;98656.31;;;14.93;100.00
66547;BME280;53400;50.364;14.874;2023-10-13T02:37:10;98651.19;;;14.76;100.00
66547;BME280;53400;50.364;14.874;2023-10-13T02:39:37;98654.44;;;14.78;100.00
66547;BME280;53400;50.364;14.874;2023-10-13T02:42:06;98655.50;;;14.82;100.00
66547;BME280;53400;50.364;14.874;2023-10-13T02:44:33;98649.56;;;14.85;100.00
66547;BME280;53400;50.364;14.874;2023-10-13T02:47:00;98649.03;;;14.78;100.00
66547;BME280;53400;50.364;14.874;2023-10-13T02:49:27;98645.78;;;14.76;100.00
66547;BME280;53400;50.364;14.874;2023-10-13T02:51:56;98652.00;;;14.81;100.00
66547;BME280;53400;50.364;14.874;2023-10-13T02:54:25;98659.81;;;14.78;100.00
66547;BME280;53400;50.364;14.874;2023-10-13T02:56:56;98647.94;;;14.79;100.00
66547;BME280;53400;50.364;14.874;2023-10-13T02:59:27;98641.78;;;14.73;100.00
66547;BME280;53400;50.364;14.874;2023-10-13T03:02:01;98648.22;;;14.87;100.00
66547;BME280;53400;50.364;14.874;2023-10-13T03:04:33;98650.63;;;14.94;100.00
66547;BME280;53400;50.364;14.874;2023-10-13T03:06:59;98649.59;;;14.75;100.00
66547;BME280;53400;50.364;14.874;2023-10-13T03:09:25;98639.63;;;14.60;100.00
66547;BME280;53400;50.364;14.874;2023-10-13T03:11:51;98635.56;;;14.78;100.00
66547;BME280;53400;50.364;14.874;2023-10-13T03:14:19;98638.28;;;14.67;100.00
66547;BME280;53400;50.364;14.874;2023-10-13T03:16:58;98635.03;;;14.65;100.00
66547;BME280;53400;50.364;14.874;2023-10-13T03:19:44;98634.75;;;14.72;100.00
66547;BME280;53400;50.364;14.874;2023-10-13T03:22:21;98639.09;;;14.73;100.00
66547;BME280;53400;50.364;14.874;2023-10-13T03:24:56;98638.25;;;14.78;100.00
66547;BME280;53400;50.364;14.874;2023-10-13T03:27:32;98640.94;;;14.78;100.00
66547;BME280;53400;50.364;14.874;2023-10-13T03:30:28;98639.59;;;14.80;100.00
66547;BME280;53400;50.364;14.874;2023-10-13T03:33:05;98635.31;;;14.79;100.00
66547;BME280;53400;50.364;14.874;2023-10-13T03:35:40;98633.66;;;14.78;100.00
66547;BME280;53400;50.364;14.874;2023-10-13T03:38:09;98633.66;;;14.83;100.00
66547;BME280;53400;50.364;14.874;2023-10-13T03:40:45;98626.13;;;14.85;100.00
66547;BME280;53400;50.364;14.874;2023-10-13T03:43:17;98630.72;;;14.75;100.00
66547;BME280;53400;50.364;14.874;2023-10-13T03:45:49;98634.50;;;14.63;100.00
66547;BME280;53400;50.364;14.874;2023-10-13T03:48:26;98633.13;;;14.81;100.00
66547;BME280;53400;50.364;14.874;2023-10-13T03:50:55;98633.38;;;14.90;100.00
66547;BME280;53400;50.364;14.874;2023-10-13T03:53:42;98623.69;;;14.84;100.00
66547;BME280;53400;50.364;14.874;2023-10-13T03:56:21;98622.88;;;14.78;100.00
66547;BME280;53400;50.364;14.874;2023-10-13T03:59:06;98628.56;;;14.66;100.00
66547;BME280;53400;50.364;14.874;2023-10-13T04:01:36;98617.53;;;14.58;100.00
66547;BME280;53400;50.364;14.874;2023-10-13T04:04:19;98632.59;;;14.49;100.00
66547;BME280;53400;50.364;14.874;2023-10-13T04:07:02;98626.91;;;14.30;100.00
66547;BME280;53400;50.364;14.874;2023-10-13T04:09:30;98616.69;;;14.32;100.00
66547;BME280;53400;50.364;14.874;2023-10-13T04:11:58;98629.88;;;14.33;100.00
66547;BME280;53400;50.364;14.874;2023-10-13T04:14:28;98627.22;;;14.59;100.00
66547;BME280;53400;50.364;14.874;2023-10-13T04:17:13;98618.53;;;14.06;100.00
66547;BME280;53400;50.364;14.874;2023-10-13T04:20:02;98620.44;;;13.95;100.00
66547;BME280;53400;50.364;14.874;2023-10-13T04:22:36;98620.13;;;13.81;100.00
66547;BME280;53400;50.364;14.874;2023-10-13T04:25:11;98617.91;;;13.52;100.00
66547;BME280;53400;50.364;14.874;2023-10-13T04:27:56;98614.41;;;13.52;100.00
66547;BME280;53400;50.364;14.874;2023-10-13T04:30:38;98615.47;;;13.51;100.00
66547;BME280;53400;50.364;14.874;2023-10-13T04:33:18;98624.13;;;13.58;100.00
66547;BME280;53400;50.364;14.874;2023-10-13T04:36:02;98623.31;;;13.58;100.00
66547;BME280;53400;50.364;14.874;2023-10-13T04:38:43;98632.53;;;13.82;100.00
66547;BME280;53400;50.364;14.874;2023-10-13T04:41:18;98622.06;;;13.91;100.00
66547;BME280;53400;50.364;14.874;2023-10-13T04:43:48;98617.19;;;13.93;100.00
66547;BME280;53400;50.364;14.874;2023-10-13T04:46:21;98616.91;;;13.79;100.00
66547;BME280;53400;50.364;14.874;2023-10-13T04:49:20;98609.13;;;13.98;100.00
66547;BME280;53400;50.364;14.874;2023-10-13T04:52:02;98601.31;;;13.96;100.00
66547;BME280;53400;50.364;14.874;2023-10-13T04:54:37;98606.16;;;13.94;100.00
66547;BME280;53400;50.364;14.874;2023-10-13T04:57:21;98603.75;;;14.08;100.00
66547;BME280;53400;50.364;14.874;2023-10-13T05:00:07;98603.22;;;14.27;100.00
66547;BME280;53400;50.364;14.874;2023-10-13T05:02:38;98613.47;;;14.35;100.00
66547;BME280;53400;50.364;14.874;2023-10-13T05:05:08;98612.91;;;14.07;100.00
66547;BME280;53400;50.364;14.874;2023-10-13T05:07:43;98633.84;;;13.74;100.00
66547;BME280;53400;50.364;14.874;2023-10-13T05:10:46;98626.31;;;13.76;100.00
66547;BME280;53400;50.364;14.874;2023-10-13T05:13:30;98608.81;;;13.74;100.00
66547;BME280;53400;50.364;14.874;2023-10-13T05:16:15;98616.41;;;13.97;100.00
66547;BME280;53400;50.364;14.874;2023-10-13T05:18:59;98622.00;;;13.81;100.00
66547;BME280;53400;50.364;14.874;2023-10-13T05:21:44;98627.97;;;13.88;100.00
66547;BME280;53400;50.364;14.874;2023-10-13T05:24:29;98625.81;;;13.90;100.00
66547;BME280;53400;50.364;14.874;2023-10-13T05:27:17;98624.72;;;13.86;100.00
66547;BME280;53400;50.364;14.874;2023-10-13T05:30:02;98625.00;;;13.94;100.00
66547;BME280;53400;50.364;14.874;2023-10-13T05:32:47;98623.94;;;13.95;100.00
66547;BME280;53400;50.364;14.874;2023-10-13T05:35:32;98626.63;;;13.85;100.00
66547;BME280;53400;50.364;14.874;2023-10-13T05:38:16;98624.72;;;13.96;100.00
66547;BME280;53400;50.364;14.874;2023-10-13T05:41:03;98631.75;;;13.97;100.00
66547;BME280;53400;50.364;14.874;2023-10-13T05:43:49;98636.28;;;13.86;100.00
66547;BME280;53400;50.364;14.874;2023-10-13T05:46:34;98641.69;;;13.86;100.00
66547;BME280;53400;50.364;14.874;2023-10-13T05:49:04;98641.72;;;14.17;100.00
66547;BME280;53400;50.364;14.874;2023-10-13T05:51:34;98630.97;;;14.27;100.00
66547;BME280;53400;50.364;14.874;2023-10-13T05:54:03;98633.09;;;14.15;100.00
66547;BME280;53400;50.364;14.874;2023-10-13T05:56:45;98638.50;;;14.30;100.00
66547;BME280;53400;50.364;14.874;2023-10-13T05:59:49;98640.94;;;14.27;100.00
66547;BME280;53400;50.364;14.874;2023-10-13T06:03:18;98637.72;;;14.50;100.00
66547;BME280;53400;50.364;14.874;2023-10-13T06:06:22;98650.69;;;14.53;100.00
66547;BME280;53400;50.364;14.874;2023-10-13T06:09:06;98650.38;;;14.29;100.00
66547;BME280;53400;50.364;14.874;2023-10-13T06:11:51;98647.41;;;14.15;100.00
66547;BME280;53400;50.364;14.874;2023-10-13T06:14:37;98651.72;;;14.37;100.00
66547;BME280;53400;50.364;14.874;2023-10-13T06:17:22;98656.03;;;14.43;100.00
66547;BME280;53400;50.364;14.874;2023-10-13T06:20:10;98655.50;;;14.51;100.00
66547;BME280;53400;50.364;14.874;2023-10-13T06:22:55;98666.03;;;14.63;100.00
66547;BME280;53400;50.364;14.874;2023-10-13T06:25:39;98654.16;;;14.54;100.00
66547;BME280;53400;50.364;14.874;2023-10-13T06:28:24;98682.19;;;14.83;100.00
66547;BME280;53400;50.364;14.874;2023-10-13T06:31:10;98675.19;;;14.57;100.00
66547;BME280;53400;50.364;14.874;2023-10-13T06:33:54;98668.69;;;14.37;100.00
66547;BME280;53400;50.364;14.874;2023-10-13T06:36:22;98668.97;;;14.41;100.00
66547;BME280;53400;50.364;14.874;2023-10-13T06:38:49;98665.22;;;14.57;100.00
66547;BME280;53400;50.364;14.874;2023-10-13T06:41:21;98676.28;;;14.56;100.00
66547;BME280;53400;50.364;14.874;2023-10-13T06:43:56;98675.72;;;14.54;100.00
66547;BME280;53400;50.364;14.874;2023-10-13T06:46:29;98667.38;;;14.55;100.00
66547;BME280;53400;50.364;14.874;2023-10-13T06:49:00;98676.81;;;14.58;100.00
66547;BME280;53400;50.364;14.874;2023-10-13T06:51:30;98678.16;;;14.60;100.00
66547;BME280;53400;50.364;14.874;2023-10-13T06:53:58;98675.44;;;14.50;100.00
66547;BME280;53400;50.364;14.874;2023-10-13T06:56:24;98680.31;;;14.63;100.00
66547;BME280;53400;50.364;14.874;2023-10-13T06:58:56;98676.81;;;14.73;100.00
66547;BME280;53400;50.364;14.874;2023-10-13T07:01:30;98671.97;;;14.70;100.00
66547;BME280;53400;50.364;14.874;2023-10-13T07:04:05;98675.44;;;14.76;100.00
66547;BME280;53400;50.364;14.874;2023-10-13T07:06:40;98687.53;;;15.14;100.00
66547;BME280;53400;50.364;14.874;2023-10-13T07:09:14;98686.44;;;15.20;100.00
66547;BME280;53400;50.364;14.874;2023-10-13T07:11:59;98683.78;;;15.00;100.00
66547;BME280;53400;50.364;14.874;2023-10-13T07:14:27;98687.84;;;14.87;100.00
66547;BME280;53400;50.364;14.874;2023-10-13T07:17:00;98691.63;;;14.96;100.00
66547;BME280;53400;50.364;14.874;2023-10-13T07:19:29;98688.38;;;14.94;100.00
66547;BME280;53400;50.364;14.874;2023-10-13T07:21:56;98693.22;;;15.12;100.00
66547;BME280;53400;50.364;14.874;2023-10-13T07:24:28;98689.19;;;15.05;100.00
66547;BME280;53400;50.364;14.874;2023-10-13T07:27:00;98685.94;;;15.13;100.00
66547;BME280;53400;50.364;14.874;2023-10-13T07:29:35;98670.56;;;15.13;100.00
66547;BME280;53400;50.364;14.874;2023-10-13T07:32:03;98672.66;;;15.32;100.00
66547;BME280;53400;50.364;14.874;2023-10-13T07:34:30;98672.41;;;15.23;100.00
66547;BME280;53400;50.364;14.874;2023-10-13T07:37:00;98672.41;;;15.28;100.00
66547;BME280;53400;50.364;14.874;2023-10-13T07:39:28;98670.47;;;15.44;100.00
66547;BME280;53400;50.364;14.874;2023-10-13T07:42:00;98665.28;;;15.58;100.00
66547;BME280;53400;50.364;14.874;2023-10-13T07:44:53;98668.81;;;15.48;100.00
66547;BME280;53400;50.364;14.874;2023-10-13T07:47:23;98670.41;;;15.59;100.00
66547;BME280;53400;50.364;14.874;2023-10-13T07:49:52;98670.09;;;15.66;100.00
66547;BME280;53400;50.364;14.874;2023-10-13T07:52:22;98663.41;;;15.53;100.00
66547;BME280;53400;50.364;14.874;2023-10-13T07:54:58;98657.41;;;15.67;100.00
66547;BME280;53400;50.364;14.874;2023-10-13T07:57:37;98668.50;;;15.65;100.00
66547;BME280;53400;50.364;14.874;2023-10-13T08:00:21;98658.75;;;15.74;100.00
66547;BME280;53400;50.364;14.874;2023-10-13T08:03:06;98661.75;;;15.63;100.00
66547;BME280;53400;50.364;14.874;2023-10-13T08:05:52;98666.34;;;15.67;100.00
66547;BME280;53400;50.364;14.874;2023-10-13T08:08:41;98661.72;;;15.73;100.00
66547;BME280;53400;50.364;14.874;2023-10-13T08:11:13;98662.50;;;15.83;100.00
66547;BME280;53400;50.364;14.874;2023-10-13T08:13:49;98666.03;;;15.79;100.00
66547;BME280;53400;50.364;14.874;2023-10-13T08:16:19;98671.97;;;15.81;100.00
66547;BME280;53400;50.364;14.874;2023-10-13T08:18:52;98670.34;;;15.80;100.00
66547;BME280;53400;50.364;14.874;2023-10-13T08:21:19;98662.97;;;15.96;100.00
66547;BME280;53400;50.364;14.874;2023-10-13T08:23:58;98649.16;;;16.02;100.00
66547;BME280;53400;50.364;14.874;2023-10-13T08:26:28;98654.00;;;16.05;100.00
66547;BME280;53400;50.364;14.874;2023-10-13T08:29:13;98659.41;;;16.00;100.00
66547;BME280;53400;50.364;14.874;2023-10-13T08:31:46;98670.19;;;16.11;100.00
66547;BME280;53400;50.364;14.874;2023-10-13T08:34:31;98650.94;;;16.22;100.00
66547;BME280;53400;50.364;14.874;2023-10-13T08:37:29;98646.22;;;16.38;100.00
66547;BME280;53400;50.364;14.874;2023-10-13T08:40:18;98650.03;;;16.32;100.00
66547;BME280;53400;50.364;14.874;2023-10-13T08:43:10;98646.25;;;16.28;100.00
66547;BME280;53400;50.364;14.874;2023-10-13T08:45:41;98649.44;;;16.40;100.00
66547;BME280;53400;50.364;14.874;2023-10-13T08:48:11;98649.94;;;16.42;100.00
66547;BME280;53400;50.364;14.874;2023-10-13T08:50:38;98650.00;;;16.37;100.00
66547;BME280;53400;50.364;14.874;2023-10-13T08:53:19;98657.94;;;16.58;100.00
66547;BME280;53400;50.364;14.874;2023-10-13T08:56:21;98658.50;;;16.55;100.00
66547;BME280;53400;50.364;14.874;2023-10-13T08:59:02;98656.91;;;16.54;100.00
66547;BME280;53400;50.364;14.874;2023-10-13T09:01:33;98658.75;;;16.58;100.00
66547;BME280;53400;50.364;14.874;2023-10-13T09:04:12;98661.34;;;17.03;100.00
66547;BME280;53400;50.364;14.874;2023-10-13T09:06:47;98662.28;;;17.17;100.00
66547;BME280;53400;50.364;14.874;2023-10-13T09:09:21;98656.31;;;17.44;100.00
66547;BME280;53400;50.364;14.874;2023-10-13T09:11:58;98656.84;;;17.65;100.00
66547;BME280;53400;50.364;14.874;2023-10-13T09:14:38;98650.19;;;17.81;100.00
66547;BME280;53400;50.364;14.874;2023-10-13T09:17:09;98655.06;;;17.98;100.00
66547;BME280;53400;50.364;14.874;2023-10-13T09:19:48;98656.75;;;18.13;100.00
66547;BME280;53400;50.364;14.874;2023-10-13T09:22:22;98647.91;;;17.88;100.00
66547;BME280;53400;50.364;14.874;2023-10-13T09:25:01;98649.16;;;18.15;100.00
66547;BME280;53400;50.364;14.874;2023-10-13T09:27:30;98647.66;;;18.23;100.00
66547;BME280;53400;50.364;14.874;2023-10-13T09:30:00;98658.97;;;18.30;100.00
66547;BME280;53400;50.364;14.874;2023-10-13T09:32:44;98649.44;;;18.32;100.00
66547;BME280;53400;50.364;14.874;2023-10-13T09:35:18;98649.00;;;18.44;100.00
66547;BME280;53400;50.364;14.874;2023-10-13T09:37:50;98639.28;;;18.57;100.00
66547;BME280;53400;50.364;14.874;2023-10-13T09:40:17;98642.59;;;18.54;100.00
66547;BME280;53400;50.364;14.874;2023-10-13T09:43:04;98644.00;;;18.65;100.00
66547;BME280;53400;50.364;14.874;2023-10-13T09:45:35;98643.69;;;18.86;100.00
66547;BME280;53400;50.364;14.874;2023-10-13T09:48:22;98636.88;;;18.88;100.00
66547;BME280;53400;50.364;14.874;2023-10-13T09:50:56;98636.28;;;18.91;100.00
66547;BME280;53400;50.364;14.874;2023-10-13T09:53:25;98634.38;;;19.06;100.00
66547;BME280;53400;50.364;14.874;2023-10-13T09:55:58;98639.41;;;19.12;100.00
66547;BME280;53400;50.364;14.874;2023-10-13T09:58:38;98635.09;;;19.11;100.00
66547;BME280;53400;50.364;14.874;2023-10-13T10:01:17;98622.75;;;19.05;100.00
66547;BME280;53400;50.364;14.874;2023-10-13T10:04:07;98624.72;;;19.13;100.00
66547;BME280;53400;50.364;14.874;2023-10-13T10:06:35;98627.13;;;19.01;100.00
66547;BME280;53400;50.364;14.874;2023-10-13T10:09:12;98622.13;;;19.22;100.00
66547;BME280;53400;50.364;14.874;2023-10-13T10:12:01;98629.28;;;19.45;100.00
66547;BME280;53400;50.364;14.874;2023-10-13T10:14:59;98617.56;;;19.59;100.00
66547;BME280;53400;50.364;14.874;2023-10-13T10:17:38;98624.31;;;19.47;100.00
66547;BME280;53400;50.364;14.874;2023-10-13T10:20:06;98618.28;;;18.82;100.00
66547;BME280;53400;50.364;14.874;2023-10-13T10:22:37;98622.13;;;19.22;100.00
66547;BME280;53400;50.364;14.874;2023-10-13T10:25:04;98620.41;;;19.40;100.00
66547;BME280;53400;50.364;14.874;2023-10-13T10:27:55;98614.66;;;19.41;100.00
66547;BME280;53400;50.364;14.874;2023-10-13T10:30:26;98608.16;;;19.42;100.00
66547;BME280;53400;50.364;14.874;2023-10-13T10:32:56;98602.28;;;19.63;100.00
66547;BME280;53400;50.364;14.874;2023-10-13T10:35:26;98608.75;;;19.67;100.00
66547;BME280;53400;50.364;14.874;2023-10-13T10:37:56;98609.53;;;19.54;100.00
66547;BME280;53400;50.364;14.874;2023-10-13T10:40:30;98603.16;;;19.86;99.43
66547;BME280;53400;50.364;14.874;2023-10-13T10:43:10;98608.56;;;20.00;97.83
66547;BME280;53400;50.364;14.874;2023-10-13T10:45:46;98601.06;;;19.83;98.22
66547;BME280;53400;50.364;14.874;2023-10-13T10:48:13;98599.53;;;19.90;99.38
66547;BME280;53400;50.364;14.874;2023-10-13T10:50:44;98597.69;;;20.00;98.29
66547;BME280;53400;50.364;14.874;2023-10-13T10:53:19;98576.13;;;20.03;97.42
66547;BME280;53400;50.364;14.874;2023-10-13T10:55:46;98575.63;;;20.24;96.14
66547;BME280;53400;50.364;14.874;2023-10-13T10:58:12;98571.41;;;19.95;98.45
66547;BME280;53400;50.364;14.874;2023-10-13T11:01:05;98569.03;;;19.93;100.00
66547;BME280;53400;50.364;14.874;2023-10-13T11:03:37;98568.41;;;20.19;97.59
66547;BME280;53400;50.364;14.874;2023-10-13T11:06:04;98564.50;;;20.11;98.50
66547;BME280;53400;50.364;14.874;2023-10-13T11:08:30;98558.94;;;20.16;98.38
66547;BME280;53400;50.364;14.874;2023-10-13T11:13:46;98553.00;;;20.37;97.15
66547;BME280;53400;50.364;14.874;2023-10-13T11:16:45;98548.53;;;20.41;95.35
66547;BME280;53400;50.364;14.874;2023-10-13T11:19:19;98548.91;;;20.48;96.21
66547;BME280;53400;50.364;14.874;2023-10-13T11:21:47;98551.09;;;20.37;97.12
66547;BME280;53400;50.364;14.874;2023-10-13T11:24:16;98545.69;;;20.15;98.05
66547;BME280;53400;50.364;14.874;2023-10-13T11:26:43;98548.19;;;20.34;96.25
66547;BME280;53400;50.364;14.874;2023-10-13T11:29:16;98545.97;;;20.36;96.37
66547;BME280;53400;50.364;14.874;2023-10-13T11:31:46;98545.69;;;20.46;96.06
66547;BME280;53400;50.364;14.874;2023-10-13T11:34:20;98543.75;;;20.69;94.55
66547;BME280;53400;50.364;14.874;2023-10-13T11:36:46;98534.50;;;20.70;93.45
66547;BME280;53400;50.364;14.874;2023-10-13T11:39:12;98521.50;;;20.67;94.70
66547;BME280;53400;50.364;14.874;2023-10-13T11:41:45;98517.38;;;20.70;95.68
66547;BME280;53400;50.364;14.874;2023-10-13T11:44:21;98514.19;;;20.76;95.96
66547;BME280;53400;50.364;14.874;2023-10-13T11:46:47;98501.91;;;20.96;94.44
66547;BME280;53400;50.364;14.874;2023-10-13T11:49:13;98499.53;;;21.03;94.14
66547;BME280;53400;50.364;14.874;2023-10-13T11:51:41;98494.41;;;21.11;95.03
66547;BME280;53400;50.364;14.874;2023-10-13T11:54:10;98490.75;;;21.24;95.51
66547;BME280;53400;50.364;14.874;2023-10-13T11:56:36;98479.69;;;21.20;95.20
66547;BME280;53400;50.364;14.874;2023-10-13T11:59:04;98483.06;;;21.17;94.87
66547;BME280;53400;50.364;14.874;2023-10-13T12:01:31;98475.00;;;20.95;94.38
66547;BME280;53400;50.364;14.874;2023-10-13T12:04:16;98475.03;;;21.21;93.64
66547;BME280;53400;50.364;14.874;2023-10-13T12:07:08;98472.81;;;21.23;92.20
66547;BME280;53400;50.364;14.874;2023-10-13T12:09:43;98470.09;;;21.23;92.74
66547;BME280;53400;50.364;14.874;2023-10-13T12:12:20;98466.09;;;21.20;91.53
66547;BME280;53400;50.364;14.874;2023-10-13T12:14:46;98465.03;;;20.81;95.96
66547;BME280;53400;50.364;14.874;2023-10-13T12:17:19;98462.38;;;21.07;95.01
66547;BME280;53400;50.364;14.874;2023-10-13T12:19:51;98460.16;;;21.18;95.42
66547;BME280;53400;50.364;14.874;2023-10-13T12:22:19;98466.44;;;21.36;94.03
66547;BME280;53400;50.364;14.874;2023-10-13T12:24:51;98460.84;;;21.59;92.89
66547;BME280;53400;50.364;14.874;2023-10-13T12:27:19;98460.69;;;21.38;90.13
66547;BME280;53400;50.364;14.874;2023-10-13T12:29:46;98442.19;;;20.91;88.49
66547;BME280;53400;50.364;14.874;2023-10-13T12:32:14;98446.91;;;20.68;89.37
66547;BME280;53400;50.364;14.874;2023-10-13T12:34:49;98436.84;;;20.77;90.34
66547;BME280;53400;50.364;14.874;2023-10-13T12:37:32;98437.53;;;20.92;86.55
66547;BME280;53400;50.364;14.874;2023-10-13T12:40:09;98441.50;;;20.77;87.54
66547;BME280;53400;50.364;14.874;2023-10-13T12:42:54;98438.94;;;20.80;85.50
66547;BME280;53400;50.364;14.874;2023-10-13T12:45:38;98439.88;;;20.67;85.66
66547;BME280;53400;50.364;14.874;2023-10-13T12:48:23;98435.09;;;20.73;86.67
66547;BME280;53400;50.364;14.874;2023-10-13T12:51:08;98427.69;;;20.65;86.49
66547;BME280;53400;50.364;14.874;2023-10-13T12:53:50;98418.78;;;20.90;86.09
66547;BME280;53400;50.364;14.874;2023-10-13T12:56:20;98431.56;;;20.81;85.26
66547;BME280;53400;50.364;14.874;2023-10-13T12:58:53;98425.66;;;20.79;84.96
66547;BME280;53400;50.364;14.874;2023-10-13T13:01:20;98423.59;;;20.93;84.42
66547;BME280;53400;50.364;14.874;2023-10-13T13:03:48;98413.72;;;21.06;84.09
66547;BME280;53400;50.364;14.874;2023-10-13T13:06:18;98414.63;;;20.93;84.04
66547;BME280;53400;50.364;14.874;2023-10-13T13:08:52;98419.31;;;21.10;84.20
66547;BME280;53400;50.364;14.874;2023-10-13T13:11:21;98411.63;;;21.03;84.44
66547;BME280;53400;50.364;14.874;2023-10-13T13:13:48;98402.47;;;20.99;83.22
66547;BME280;53400;50.364;14.874;2023-10-13T13:16:14;98410.34;;;21.00;85.16
66547;BME280;53400;50.364;14.874;2023-10-13T13:18:41;98407.63;;;21.00;85.76
66547;BME280;53400;50.364;14.874;2023-10-13T13:21:08;98403.78;;;21.19;83.63
66547;BME280;53400;50.364;14.874;2023-10-13T13:23:38;98389.84;;;21.20;83.81
66547;BME280;53400;50.364;14.874;2023-10-13T13:26:07;98386.78;;;21.57;82.28